Time;durP1;ratioP1;P1;durP2;ratioP2;P2;SDS_P1;SDS_P2;PMS_P1;PMS_P2;Temp;Humidity;BMP_temperature;BMP_pressure;BME280_temperature;BME280_humidity;BME280_pressure;Samples;Min_cycle;Max_cycle;Signal;HPM_P1;HPM_P2
2022/09/28 00:01:22;;;;;;;0.43;0.43;;;27.30;94.80;;;;;;5064342;28;20924;-82
2022/09/28 00:03:53;;;;;;;0.73;0.40;;;27.10;93.30;;;;;;5057697;28;20433;-78
2022/09/28 00:06:26;;;;;;;0.75;0.40;;;27.00;93.40;;;;;;5060184;28;20360;-79
2022/09/28 00:08:53;;;;;;;0.50;0.43;;;26.50;93.10;;;;;;5057209;28;20025;-81
2022/09/28 00:11:23;;;;;;;2.45;0.30;;;26.50;92.60;;;;;;5054046;28;20021;-81
2022/09/28 00:13:55;;;;;;;0.47;0.25;;;26.90;93.20;;;;;;5063286;28;20160;-80
2022/09/28 00:16:25;;;;;;;0.70;0.30;;;26.90;93.30;;;;;;5054049;28;20041;-81
2022/09/28 00:18:54;;;;;;;1.58;0.40;;;26.20;94.00;;;;;;5065888;28;20121;-84
2022/09/28 00:21:29;;;;;;;0.43;0.35;;;25.40;93.90;;;;;;5067360;28;20130;-81
2022/09/28 00:24:15;;;;;;;;;;;24.60;95.70;;;;;;5056954;28;20568;-81
2022/09/28 00:26:50;;;;;;;0.30;0.30;;;24.60;94.90;;;;;;5064247;28;19931;-80
2022/09/28 00:29:23;;;;;;;0.25;0.25;;;25.10;95.70;;;;;;5068317;28;20127;-80
2022/09/28 00:32:01;;;;;;;0.20;0.20;;;25.20;92.90;;;;;;5065000;28;20402;-80
2022/09/28 00:34:47;;;;;;;0.28;0.28;;;24.90;92.90;;;;;;5058505;28;20139;-81
2022/09/28 00:37:17;;;;;;;0.22;0.20;;;25.70;93.40;;;;;;5048773;28;20044;-82
2022/09/28 00:39:45;;;;;;;0.38;0.30;;;26.60;92.40;;;;;;5050630;28;20216;-82
2022/09/28 00:42:21;;;;;;;1.40;0.28;;;27.10;91.60;;;;;;5051308;28;20021;-81
2022/09/28 00:44:53;;;;;;;0.20;0.20;;;27.40;90.80;;;;;;5050659;28;20532;-82
2022/09/28 00:47:24;;;;;;;0.88;0.50;;;27.90;91.80;;;;;;5055744;28;20042;-81
2022/09/28 00:49:58;;;;;;;0.52;0.40;;;28.10;91.00;;;;;;5053816;28;20133;-83
2022/09/28 00:53:08;;;;;;;0.43;0.43;;;27.20;90.40;;;;;;5057319;28;20033;-81
2022/09/28 00:55:48;;;;;;;0.30;0.15;;;26.90;91.40;;;;;;5022784;28;20047;-83
2022/09/28 00:58:23;;;;;;;0.30;0.20;;;26.10;91.00;;;;;;5054022;28;20040;-82
2022/09/28 01:00:52;;;;;;;0.40;0.35;;;25.20;92.00;;;;;;5048427;28;20407;-80
2022/09/28 01:03:19;;;;;;;0.73;0.28;;;24.60;91.40;;;;;;5049938;28;20044;-81
2022/09/28 01:05:50;;;;;;;0.63;0.30;;;24.10;91.70;;;;;;5052947;28;20034;-80
2022/09/28 01:08:20;;;;;;;0.20;0.20;;;25.00;92.50;;;;;;5053704;28;20028;-83
2022/09/28 01:10:50;;;;;;;1.45;0.35;;;26.00;92.70;;;;;;5054554;28;20086;-84
2022/09/28 01:13:18;;;;;;;0.90;0.22;;;26.70;92.30;;;;;;5054591;28;20021;-83
2022/09/28 01:16:06;;;;;;;0.75;0.30;;;27.30;92.10;;;;;;5056972;28;20028;-81
2022/09/28 01:18:39;;;;;;;0.65;0.20;;;28.00;91.60;;;;;;5060957;28;20055;-83
2022/09/28 01:21:24;;;;;;;0.22;0.17;;;28.40;88.50;;;;;;5050734;28;20029;-82
2022/09/28 01:24:25;;;;;;;0.55;0.50;;;28.50;90.80;;;;;;5058376;28;20541;-86
2022/09/28 01:27:39;;;;;;;0.10;0.10;;;28.90;90.50;;;;;;5065796;28;20368;-83
2022/09/28 01:30:07;;;;;;;0.30;0.10;;;28.40;88.20;;;;;;5042143;28;20718;-89
2022/09/28 01:32:45;;;;;;;3.00;0.30;;;27.40;89.00;;;;;;5057076;28;20059;-88
2022/09/28 01:35:35;;;;;;;0.30;0.20;;;26.50;89.20;;;;;;5068241;28;20025;-85
2022/09/28 01:38:09;;;;;;;0.35;0.20;;;25.40;90.60;;;;;;5064993;28;20045;-82
2022/09/28 01:40:37;;;;;;;0.55;0.30;;;24.80;90.70;;;;;;5055206;28;20025;-83
2022/09/28 01:43:15;;;;;;;0.40;0.30;;;24.70;92.50;;;;;;5060264;28;20085;-81
2022/09/28 01:45:49;;;;;;;0.20;0.20;;;25.60;92.90;;;;;;5061361;28;20028;-87
2022/09/28 01:48:26;;;;;;;0.40;0.20;;;26.10;91.50;;;;;;5051685;28;20029;-86
2022/09/28 01:50:58;;;;;;;0.85;0.30;;;26.80;90.90;;;;;;5050268;28;20032;-83
2022/09/28 01:53:31;;;;;;;0.30;0.20;;;27.50;89.00;;;;;;5054985;28;20145;-83
2022/09/28 01:56:06;;;;;;;0.10;0.10;;;28.00;91.20;;;;;;5053307;28;20425;-84
2022/09/28 01:58:59;;;;;;;;;;;28.40;86.70;;;;;;5056180;28;20032;-84
2022/09/28 02:01:39;;;;;;;0.60;0.20;;;28.50;90.10;;;;;;5049066;28;19915;-78
2022/09/28 02:04:26;;;;;;;0.80;0.10;;;28.70;85.80;;;;;;5057637;28;20024;-78
2022/09/28 02:07:12;;;;;;;0.15;0.15;;;28.80;85.60;;;;;;5062329;28;20383;-80
2022/09/28 02:09:41;;;;;;;;;;;28.70;86.80;;;;;;5061493;28;20116;-80
2022/09/28 02:12:32;;;;;;;0.30;0.20;;;28.60;85.20;;;;;;5062277;28;20401;-81
2022/09/28 02:15:22;;;;;;;0.20;0.15;;;28.70;85.10;;;;;;5049792;28;20024;-79
2022/09/28 02:17:50;;;;;;;0.52;0.28;;;28.50;86.30;;;;;;5055641;28;20506;-80
2022/09/28 02:20:20;;;;;;;0.47;0.20;;;28.50;83.40;;;;;;5053524;28;20029;-79
2022/09/28 02:22:51;;;;;;;0.73;0.20;;;28.70;84.70;;;;;;5058759;28;20074;-79
2022/09/28 02:25:44;;;;;;;0.35;0.28;;;28.80;84.50;;;;;;5055568;28;20029;-83
2022/09/28 02:28:13;;;;;;;0.20;0.20;;;28.80;79.80;;;;;;5058295;28;20044;-81
2022/09/28 02:30:42;;;;;;;0.13;0.10;;;28.90;82.10;;;;;;5057606;28;20020;-79
2022/09/28 02:33:21;;;;;;;0.38;0.15;;;28.70;83.10;;;;;;5057369;28;20060;-79
2022/09/28 02:35:49;;;;;;;0.38;0.20;;;28.40;85.50;;;;;;5058127;28;20025;-80
2022/09/28 02:38:16;;;;;;;0.50;0.20;;;27.30;85.20;;;;;;5054104;28;20039;-78
2022/09/28 02:40:56;;;;;;;0.55;0.40;;;26.40;86.10;;;;;;5066314;28;20912;-82
2022/09/28 02:43:57;;;;;;;0.17;0.17;;;26.50;88.00;;;;;;5060290;28;20029;-84
2022/09/28 02:46:58;;;;;;;0.40;0.28;;;27.40;89.90;;;;;;5054259;28;20072;-81
2022/09/28 02:49:43;;;;;;;0.20;0.20;;;28.00;86.20;;;;;;5044728;28;20140;-81
2022/09/28 02:52:14;;;;;;;0.43;0.30;;;28.60;84.90;;;;;;5061993;28;20020;-83
2022/09/28 02:55:25;;;;;;;0.45;0.30;;;29.10;84.60;;;;;;5057938;28;20021;-83
2022/09/28 02:58:02;;;;;;;0.82;0.30;;;29.30;82.20;;;;;;4993992;28;20544;-83
2022/09/28 03:00:32;;;;;;;0.10;0.10;;;29.50;80.80;;;;;;4997000;28;20030;-80
2022/09/28 03:03:28;;;;;;;0.30;0.20;;;29.70;83.50;;;;;;5026211;28;20067;-78
2022/09/28 03:06:26;;;;;;;0.20;0.20;;;29.80;79.40;;;;;;5059073;28;20028;-80
2022/09/28 03:09:12;;;;;;;0.55;0.22;;;28.40;77.80;;;;;;5064124;28;20037;-87
2022/09/28 03:11:51;;;;;;;0.30;0.20;;;27.10;83.10;;;;;;5054091;28;20162;-79
2022/09/28 03:14:20;;;;;;;0.15;0.10;;;26.50;83.10;;;;;;5056721;28;20029;-78
2022/09/28 03:16:47;;;;;;;0.20;0.10;;;26.00;82.10;;;;;;5057161;28;20364;-76
2022/09/28 03:19:20;;;;;;;0.10;0.10;;;25.60;81.80;;;;;;5053600;28;20091;-77
2022/09/28 03:21:48;;;;;;;0.30;0.20;;;25.60;83.00;;;;;;5052837;28;20067;-75
2022/09/28 03:24:15;;;;;;;0.20;0.10;;;25.40;80.20;;;;;;5052825;28;20032;-80
2022/09/28 03:26:43;;;;;;;0.20;0.10;;;25.30;81.80;;;;;;5051266;28;20036;-81
2022/09/28 03:29:10;;;;;;;0.40;0.25;;;25.10;81.20;;;;;;5057126;28;20536;-80
2022/09/28 03:31:37;;;;;;;0.13;0.10;;;25.10;82.60;;;;;;5052756;28;20068;-79
2022/09/28 03:34:05;;;;;;;0.05;0.05;;;24.90;82.80;;;;;;5051999;28;20040;-78
2022/09/28 03:36:32;;;;;;;2.35;0.13;;;24.80;81.80;;;;;;5052593;28;20041;-78
2022/09/28 03:39:00;;;;;;;0.52;0.20;;;24.60;82.90;;;;;;5054931;28;20383;-79
2022/09/28 03:41:27;;;;;;;0.55;0.20;;;24.40;83.80;;;;;;5052566;28;20028;-82
2022/09/28 03:43:55;;;;;;;0.43;0.10;;;24.30;85.20;;;;;;5054747;28;20048;-81
2022/09/28 03:46:22;;;;;;;0.70;0.20;;;24.20;85.50;;;;;;5059582;28;20036;-78
2022/09/28 03:48:49;;;;;;;0.15;0.10;;;24.10;85.60;;;;;;5062209;28;20113;-78
2022/09/28 03:51:17;;;;;;;0.30;0.25;;;23.90;84.80;;;;;;5057903;28;20032;-85
2022/09/28 03:53:44;;;;;;;0.20;0.10;;;23.80;85.70;;;;;;5057887;28;20499;-84
2022/09/28 03:56:14;;;;;;;0.65;0.15;;;23.60;86.20;;;;;;5053777;28;20078;-80
2022/09/28 03:58:42;;;;;;;0.15;0.10;;;23.60;86.10;;;;;;5051258;28;20044;-80
2022/09/28 04:01:12;;;;;;;0.20;0.20;;;23.60;85.20;;;;;;5040754;28;20183;-78
2022/09/28 04:03:39;;;;;;;0.22;0.20;;;23.50;84.50;;;;;;5058183;28;20086;-77
2022/09/28 04:06:06;;;;;;;0.22;0.10;;;23.50;84.90;;;;;;5060067;28;20537;-79
2022/09/28 04:08:34;;;;;;;0.10;0.10;;;23.40;83.40;;;;;;5056143;28;20078;-77
2022/09/28 04:11:01;;;;;;;0.10;0.10;;;23.40;85.00;;;;;;5058825;28;20416;-81
2022/09/28 04:13:29;;;;;;;0.10;0.10;;;23.40;86.00;;;;;;5053947;28;20529;-82
2022/09/28 04:15:59;;;;;;;0.45;0.20;;;23.40;85.60;;;;;;5058355;28;20054;-84
2022/09/28 04:18:27;;;;;;;0.52;0.20;;;23.50;84.60;;;;;;5048684;28;20043;-78
2022/09/28 04:21:05;;;;;;;0.30;0.10;;;23.40;82.30;;;;;;5050615;28;20526;-79
2022/09/28 04:23:36;;;;;;;0.68;0.15;;;23.20;82.70;;;;;;5051079;28;20084;-81
2022/09/28 04:26:05;;;;;;;0.10;0.10;;;23.20;84.70;;;;;;5052527;28;20056;-82
2022/09/28 04:31:21;;;;;;;0.17;0.10;;;23.20;83.40;;;;;;5056708;28;20093;-82
2022/09/28 04:33:48;;;;;;;0.28;0.10;;;23.10;82.60;;;;;;5049134;28;20052;-80
2022/09/28 04:36:16;;;;;;;0.70;0.20;;;23.10;83.80;;;;;;5051974;28;20398;-80
2022/09/28 04:38:44;;;;;;;0.13;0.13;;;23.20;83.30;;;;;;5054037;28;21840;-87
2022/09/28 04:41:11;;;;;;;0.17;0.10;;;23.40;83.00;;;;;;5059781;28;20063;-86
2022/09/28 04:43:39;;;;;;;0.55;0.10;;;23.50;82.90;;;;;;5076752;28;20044;-81
2022/09/28 04:46:06;;;;;;;0.73;0.10;;;24.10;81.20;;;;;;5057451;28;20028;-85
2022/09/28 04:48:34;;;;;;;0.10;0.10;;;24.70;79.00;;;;;;5055581;28;20515;-78
2022/09/28 04:51:01;;;;;;;1.48;0.57;;;24.80;80.70;;;;;;5056043;28;20997;-86
2022/09/28 04:53:29;;;;;;;1.33;0.73;;;24.70;88.70;;;;;;5053564;28;20082;-80
2022/09/28 04:56:01;;;;;;;0.77;0.50;;;24.20;90.90;;;;;;5054779;28;20134;-81
2022/09/28 04:58:30;;;;;;;0.60;0.50;;;23.80;91.80;;;;;;5055526;28;20471;-82
2022/09/28 05:01:00;;;;;;;1.30;0.60;;;23.60;92.30;;;;;;5053154;28;20552;-81
2022/09/28 05:03:28;;;;;;;1.48;0.50;;;23.30;93.30;;;;;;5053165;28;20031;-79
2022/09/28 05:05:55;;;;;;;1.50;0.70;;;23.00;94.20;;;;;;5052211;28;20028;-78
2022/09/28 05:08:23;;;;;;;3.75;0.80;;;22.90;94.40;;;;;;5052373;28;20032;-79
2022/09/28 05:11:00;;;;;;;5.60;1.48;;;22.80;94.60;;;;;;5036999;28;20097;-82
2022/09/28 05:13:28;;;;;;;1.33;0.47;;;22.60;94.40;;;;;;5060065;28;20074;-79
2022/09/28 05:15:57;;;;;;;1.45;0.50;;;22.50;94.60;;;;;;5053879;28;20020;-81
2022/09/28 05:18:25;;;;;;;1.63;0.60;;;22.50;94.30;;;;;;5051998;28;20039;-81
2022/09/28 05:20:52;;;;;;;1.85;0.38;;;22.50;94.00;;;;;;5055418;28;20032;-79
2022/09/28 05:23:20;;;;;;;0.73;0.52;;;22.50;93.70;;;;;;5051666;28;20054;-78
2022/09/28 05:25:47;;;;;;;2.10;1.20;;;22.50;94.10;;;;;;5052750;28;20037;-79
2022/09/28 05:28:19;;;;;;;6.22;1.45;;;22.40;94.70;;;;;;5049268;28;20037;-81
2022/09/28 05:30:46;;;;;;;3.75;0.80;;;22.40;94.80;;;;;;5054889;28;20091;-81
2022/09/28 05:33:14;;;;;;;2.10;0.60;;;22.10;95.30;;;;;;5055404;28;20036;-81
2022/09/28 05:35:41;;;;;;;2.40;0.43;;;21.90;95.50;;;;;;5055875;28;20032;-79
2022/09/28 05:38:08;;;;;;;2.60;0.90;;;21.70;95.80;;;;;;5057685;28;20033;-79
2022/09/28 05:40:36;;;;;;;3.35;0.65;;;21.70;95.90;;;;;;5057420;28;20039;-80
2022/09/28 05:43:03;;;;;;;2.90;0.68;;;21.70;95.50;;;;;;5053872;28;20045;-84
2022/09/28 05:45:30;;;;;;;3.97;0.57;;;21.60;95.70;;;;;;5056088;28;20535;-83
2022/09/28 05:47:58;;;;;;;1.52;1.27;;;21.60;96.10;;;;;;5054013;28;20122;-81
2022/09/28 05:50:25;;;;;;;0.82;0.60;;;21.60;96.30;;;;;;5064597;28;20020;-79
2022/09/28 05:53:04;;;;;;;3.83;0.88;;;21.60;96.80;;;;;;5067582;28;20048;-79
2022/09/28 05:55:32;;;;;;;1.75;0.70;;;21.60;96.60;;;;;;5064052;28;20533;-79
2022/09/28 05:58:01;;;;;;;1.50;0.77;;;21.70;96.60;;;;;;5068201;28;20047;-79
2022/09/28 06:00:29;;;;;;;1.90;0.45;;;21.80;96.60;;;;;;5065491;28;20302;-78
2022/09/28 06:03:06;;;;;;;1.27;0.50;;;21.70;96.50;;;;;;5069876;28;20024;-79
2022/09/28 06:05:38;;;;;;;2.47;0.60;;;21.80;96.70;;;;;;5066524;28;20040;-80
2022/09/28 06:08:07;;;;;;;2.13;0.80;;;21.70;96.90;;;;;;5060791;28;20052;-78
2022/09/28 06:10:34;;;;;;;5.63;0.90;;;21.70;96.90;;;;;;5069972;28;20078;-80
2022/09/28 06:13:02;;;;;;;5.32;0.63;;;21.60;97.20;;;;;;5071374;28;20028;-80
2022/09/28 06:15:32;;;;;;;2.33;0.80;;;21.50;97.30;;;;;;5073758;28;20133;-83
2022/09/28 06:18:02;;;;;;;2.28;1.05;;;21.30;97.90;;;;;;5064291;28;20494;-79
2022/09/28 06:20:33;;;;;;;2.17;0.90;;;21.10;98.40;;;;;;5066778;28;20036;-80
2022/09/28 06:23:00;;;;;;;2.40;1.15;;;20.90;98.80;;;;;;5066554;28;20028;-82
2022/09/28 06:25:28;;;;;;;1.98;0.77;;;20.80;99.00;;;;;;5061731;28;20032;-82
2022/09/28 06:28:08;;;;;;;3.78;1.10;;;20.70;99.00;;;;;;5057767;28;20036;-83
2022/09/28 06:30:39;;;;;;;5.13;0.73;;;20.60;98.90;;;;;;5063940;28;20041;-84
2022/09/28 06:33:11;;;;;;;4.10;0.70;;;20.50;99.10;;;;;;5043811;28;20091;-82
2022/09/28 06:35:39;;;;;;;3.80;0.80;;;20.40;99.20;;;;;;5062793;28;20036;-82
2022/09/28 06:38:07;;;;;;;2.88;1.05;;;20.30;99.10;;;;;;5063585;28;20611;-81
2022/09/28 06:40:35;;;;;;;2.58;0.82;;;20.30;99.00;;;;;;5042865;28;20037;-80
2022/09/28 06:43:09;;;;;;;1.85;0.60;;;20.30;99.20;;;;;;5058240;28;20059;-81
2022/09/28 06:45:37;;;;;;;1.98;0.68;;;20.20;99.70;;;;;;5056932;28;20029;-80
2022/09/28 06:48:05;;;;;;;3.97;1.33;;;20.20;99.90;;;;;;5061788;28;20419;-82
2022/09/28 06:50:39;;;;;;;3.17;1.33;;;20.10;99.90;;;;;;5060955;28;20475;-81
2022/09/28 06:53:12;;;;;;;4.80;1.67;;;20.00;99.90;;;;;;5053448;28;20029;-82
2022/09/28 06:55:41;;;;;;;3.53;1.17;;;19.80;99.90;;;;;;5060869;28;20509;-81
2022/09/28 06:58:13;;;;;;;4.68;1.35;;;19.70;99.90;;;;;;5063705;28;20043;-79
2022/09/28 07:00:41;;;;;;;4.40;1.00;;;19.50;99.90;;;;;;5066683;28;20099;-81
2022/09/28 07:03:12;;;;;;;5.05;1.27;;;19.30;99.90;;;;;;5072020;28;20028;-79
2022/09/28 07:05:45;;;;;;;4.82;1.00;;;19.00;99.90;;;;;;5070466;28;20056;-80
2022/09/28 07:08:14;;;;;;;1.27;0.90;;;18.90;99.90;;;;;;5071874;28;20075;-83
2022/09/28 07:10:43;;;;;;;3.40;0.90;;;18.80;99.90;;;;;;5065250;28;20024;-82
2022/09/28 07:13:15;;;;;;;3.38;1.00;;;18.60;99.90;;;;;;5067610;28;20027;-83
2022/09/28 07:15:42;;;;;;;2.08;1.10;;;18.40;99.90;;;;;;5071765;28;20071;-82
2022/09/28 07:18:11;;;;;;;3.13;0.75;;;18.30;99.90;;;;;;5068157;28;20048;-82
2022/09/28 07:20:38;;;;;;;2.38;0.43;;;18.10;99.90;;;;;;5072310;28;20574;-83
2022/09/28 07:23:07;;;;;;;0.95;0.47;;;17.90;99.40;;;;;;5064225;28;20487;-79
2022/09/28 07:25:35;;;;;;;0.43;0.22;;;17.70;98.60;;;;;;5060464;28;20029;-81
2022/09/28 07:28:04;;;;;;;0.60;0.30;;;17.50;99.00;;;;;;5063651;28;20045;-81
2022/09/28 07:30:34;;;;;;;5.13;0.40;;;17.20;98.60;;;;;;5064406;28;20398;-80
2022/09/28 07:33:04;;;;;;;1.27;0.40;;;17.00;99.90;;;;;;5061112;28;20044;-83
2022/09/28 07:35:33;;;;;;;0.95;0.40;;;16.80;99.40;;;;;;5067746;28;20036;-81
2022/09/28 07:38:02;;;;;;;2.00;0.45;;;16.70;99.00;;;;;;5061101;28;20042;-81
2022/09/28 07:43:19;;;;;;;0.70;0.32;;;16.50;99.90;;;;;;5065937;28;20193;-82
2022/09/28 07:45:51;;;;;;;4.70;0.70;;;16.40;99.90;;;;;;5069547;28;20024;-81
2022/09/28 07:48:19;;;;;;;4.05;1.27;;;16.30;99.90;;;;;;5061831;28;20098;-82
2022/09/28 07:50:51;;;;;;;4.63;1.65;;;16.20;99.90;;;;;;5065788;28;20506;-81
2022/09/28 07:53:23;;;;;;;5.55;1.48;;;16.10;99.90;;;;;;5070022;28;20032;-82
2022/09/28 07:56:08;;;;;;;1.58;1.00;;;16.00;99.90;;;;;;5067561;28;20055;-82
2022/09/28 07:58:37;;;;;;;3.95;0.95;;;16.00;99.90;;;;;;5061453;28;20468;-80
2022/09/28 08:01:09;;;;;;;2.70;1.38;;;15.90;99.90;;;;;;5065748;28;20062;-81
2022/09/28 08:03:38;;;;;;;2.38;1.60;;;16.00;99.90;;;;;;5064367;28;20495;-81
2022/09/28 08:06:09;;;;;;;2.55;1.33;;;16.00;99.90;;;;;;5061921;28;20028;-84
2022/09/28 08:08:42;;;;;;;7.18;2.08;;;16.00;99.90;;;;;;5064816;28;20016;-83
2022/09/28 08:11:11;;;;;;;4.82;1.88;;;15.90;99.90;;;;;;5064291;28;20609;-80
2022/09/28 08:13:39;;;;;;;6.35;3.13;;;15.80;99.90;;;;;;5066912;28;20025;-82
2022/09/28 08:16:07;;;;;;;4.60;2.08;;;15.80;99.90;;;;;;5038217;28;20020;-85
2022/09/28 08:18:35;;;;;;;2.40;1.38;;;15.70;99.90;;;;;;5051042;28;20128;-81
2022/09/28 08:23:51;;;;;;;3.33;1.45;;;15.40;99.90;;;;;;5054845;28;20046;-82
2022/09/28 08:26:19;;;;;;;5.53;2.88;;;15.20;99.90;;;;;;5052283;28;20639;-85
2022/09/28 08:28:46;;;;;;;1.60;1.17;;;15.10;99.90;;;;;;5059643;28;20087;-80
2022/09/28 08:31:14;;;;;;;2.53;1.60;;;15.10;99.90;;;;;;5057832;28;20036;-84
2022/09/28 08:33:41;;;;;;;1.80;1.27;;;15.20;99.90;;;;;;5070471;28;20072;-84
2022/09/28 08:36:09;;;;;;;3.33;1.58;;;15.30;99.90;;;;;;5071128;28;20025;-82
2022/09/28 08:38:37;;;;;;;5.68;1.40;;;15.40;99.90;;;;;;5061359;28;20044;-85
2022/09/28 08:41:22;;;;;;;5.13;0.98;;;15.40;99.90;;;;;;5070253;28;20021;-84
2022/09/28 08:44:09;;;;;;;4.13;0.90;;;15.40;99.90;;;;;;5066553;28;20032;-85
2022/09/28 08:46:38;;;;;;;;;;;15.50;99.90;;;;;;5067824;28;20025;-89
2022/09/28 08:49:29;;;;;;;5.90;1.95;;;15.50;99.90;;;;;;5064415;28;20412;-87
2022/09/28 08:52:16;;;;;;;2.78;1.60;;;15.50;99.90;;;;;;5065997;28;20101;-84
2022/09/28 08:54:53;;;;;;;4.57;1.67;;;15.40;99.90;;;;;;5065895;28;20037;-84
2022/09/28 08:57:45;;;;;;;7.82;2.83;;;15.40;99.90;;;;;;5063968;28;20041;-84
2022/09/28 09:00:53;;;;;;;3.45;2.60;;;15.40;99.90;;;;;;5050282;28;20387;-83
2022/09/28 09:03:40;;;;;;;5.20;2.45;;;15.40;99.90;;;;;;5069073;28;20028;-81
2022/09/28 09:06:33;;;;;;;5.55;2.60;;;15.40;99.90;;;;;;5067121;28;20025;-83
2022/09/28 09:09:35;;;;;;;3.20;1.80;;;15.40;99.90;;;;;;5068297;28;20052;-80
2022/09/28 09:12:37;;;;;;;8.48;3.10;;;15.40;99.90;;;;;;5065224;28;20040;-82
2022/09/28 09:15:21;;;;;;;2.40;1.45;;;15.40;99.90;;;;;;5064673;28;20021;-81
2022/09/28 09:18:15;;;;;;;4.07;2.13;;;15.50;99.90;;;;;;5054945;28;20032;-82
2022/09/28 09:20:52;;;;;;;4.25;1.73;;;15.50;99.90;;;;;;5065332;28;20021;-84
2022/09/28 09:23:27;;;;;;;5.03;2.03;;;15.50;99.90;;;;;;5068868;28;20083;-82
2022/09/28 09:26:02;;;;;;;4.70;1.97;;;15.60;99.90;;;;;;5070254;28;20031;-84
2022/09/28 09:28:49;;;;;;;4.22;1.95;;;15.60;99.90;;;;;;5063033;28;20025;-83
2022/09/28 09:31:16;;;;;;;3.58;1.95;;;15.50;99.90;;;;;;5067203;28;20020;-82
2022/09/28 09:34:08;;;;;;;2.80;1.35;;;15.50;99.90;;;;;;5066803;28;20053;-82
2022/09/28 09:36:46;;;;;;;6.00;1.98;;;15.60;99.90;;;;;;5064645;28;20089;-82
2022/09/28 09:39:14;;;;;;;2.60;1.90;;;15.50;99.90;;;;;;5061254;28;20035;-79
2022/09/28 09:41:46;;;;;;;1.92;1.73;;;15.60;99.90;;;;;;5062769;28;20127;-81
2022/09/28 09:44:28;;;;;;;6.07;1.65;;;15.50;99.90;;;;;;5064854;28;20040;-80
2022/09/28 09:47:19;;;;;;;3.22;1.75;;;15.50;99.90;;;;;;5064140;28;20033;-83
2022/09/28 09:50:05;;;;;;;3.00;1.77;;;15.50;99.90;;;;;;5061305;28;20028;-83
2022/09/28 09:53:07;;;;;;;5.97;3.22;;;15.50;99.90;;;;;;5058128;28;20093;-82
2022/09/28 09:55:43;;;;;;;6.32;2.65;;;15.50;99.90;;;;;;5056778;28;20052;-83
2022/09/28 09:58:23;;;;;;;6.18;2.08;;;15.40;99.90;;;;;;5061431;28;20044;-82
2022/09/28 10:00:53;;;;;;;3.83;2.00;;;15.40;99.90;;;;;;5067501;28;20024;-83
2022/09/28 10:03:22;;;;;;;1.55;1.25;;;15.40;99.90;;;;;;5059285;28;20033;-83
2022/09/28 10:06:00;;;;;;;3.75;1.67;;;15.40;99.90;;;;;;5063787;28;20032;-83
2022/09/28 10:08:34;;;;;;;3.08;1.65;;;15.40;99.90;;;;;;5062346;28;20028;-83
2022/09/28 10:11:06;;;;;;;3.70;1.92;;;15.30;99.90;;;;;;5065080;28;20040;-81
2022/09/28 10:13:34;;;;;;;1.80;1.15;;;15.30;99.90;;;;;;5065236;28;20434;-83
2022/09/28 10:16:01;;;;;;;2.15;1.38;;;15.30;99.90;;;;;;5069108;28;20545;-84
2022/09/28 10:18:29;;;;;;;5.97;1.33;;;15.20;99.90;;;;;;5064984;28;20048;-83
2022/09/28 10:20:56;;;;;;;2.70;1.95;;;15.20;99.90;;;;;;5069381;28;20055;-82
2022/09/28 10:23:33;;;;;;;3.92;1.55;;;15.20;99.90;;;;;;5067632;28;20449;-83
2022/09/28 10:26:05;;;;;;;2.83;1.35;;;15.10;99.90;;;;;;5067564;28;21180;-81
2022/09/28 10:29:00;;;;;;;2.38;1.65;;;15.10;99.90;;;;;;5065754;28;20472;-82
2022/09/28 10:31:46;;;;;;;2.95;0.85;;;15.10;99.90;;;;;;5066293;28;20479;-82
2022/09/28 10:34:16;;;;;;;2.35;0.88;;;15.00;99.90;;;;;;5067872;28;20135;-82
2022/09/28 10:36:54;;;;;;;2.95;0.90;;;15.10;99.90;;;;;;5067828;28;20667;-81
2022/09/28 10:39:29;;;;;;;1.13;0.60;;;14.90;99.90;;;;;;5068777;28;20036;-80
2022/09/28 10:42:03;;;;;;;1.65;1.02;;;14.80;99.90;;;;;;5070765;28;20475;-81
2022/09/28 10:44:34;;;;;;;0.40;0.40;;;14.80;99.90;;;;;;5067232;28;20480;-80
2022/09/28 10:47:07;;;;;;;0.52;0.52;;;14.70;99.90;;;;;;5062292;28;20036;-82
2022/09/28 10:49:47;;;;;;;0.70;0.55;;;14.70;99.90;;;;;;5069496;28;20028;-83
2022/09/28 10:52:39;;;;;;;0.38;0.38;;;14.60;99.90;;;;;;5065521;28;20128;-83
2022/09/28 10:55:22;;;;;;;0.90;0.45;;;14.50;99.90;;;;;;5066880;28;20025;-83
2022/09/28 10:57:49;;;;;;;0.50;0.40;;;14.50;99.90;;;;;;5067536;28;20486;-80
2022/09/28 11:00:41;;;;;;;0.65;0.30;;;14.50;99.90;;;;;;5069463;28;20081;-81
2022/09/28 11:03:24;;;;;;;0.88;0.50;;;14.50;99.90;;;;;;5064620;28;20024;-81
2022/09/28 11:06:06;;;;;;;0.50;0.50;;;14.40;99.90;;;;;;5067172;28;20547;-81
2022/09/28 11:08:40;;;;;;;1.52;0.50;;;14.40;99.90;;;;;;5069067;28;20101;-81
2022/09/28 11:11:16;;;;;;;0.77;0.68;;;14.30;99.90;;;;;;5070568;28;20086;-79
2022/09/28 11:14:02;;;;;;;0.82;0.50;;;14.30;99.90;;;;;;5066440;28;20487;-82
2022/09/28 11:16:30;;;;;;;1.40;0.68;;;14.30;99.90;;;;;;5066816;28;20041;-82
2022/09/28 11:19:17;;;;;;;0.70;0.50;;;14.30;99.90;;;;;;5069084;28;20028;-84
2022/09/28 11:21:47;;;;;;;3.20;0.57;;;14.30;99.90;;;;;;5065531;28;20523;-84
2022/09/28 11:24:25;;;;;;;2.00;0.40;;;14.30;99.90;;;;;;5072190;28;20040;-81
2022/09/28 11:26:56;;;;;;;1.98;0.45;;;14.20;99.90;;;;;;5071091;28;20037;-82
2022/09/28 11:29:41;;;;;;;1.25;0.60;;;14.20;99.90;;;;;;5069778;28;20033;-81
2022/09/28 11:32:10;;;;;;;0.67;0.50;;;14.10;99.90;;;;;;5068921;28;20048;-81
2022/09/28 11:34:48;;;;;;;1.75;0.50;;;14.10;99.90;;;;;;5072712;28;20021;-80
2022/09/28 11:37:39;;;;;;;0.50;0.40;;;14.10;99.90;;;;;;5068613;28;20713;-81
2022/09/28 11:40:34;;;;;;;0.40;0.30;;;14.10;99.90;;;;;;5066295;28;20058;-81
2022/09/28 11:43:28;;;;;;;0.45;0.30;;;14.10;99.90;;;;;;5058391;28;20056;-81
2022/09/28 11:46:06;;;;;;;0.60;0.40;;;14.10;99.90;;;;;;5067147;28;20086;-81
2022/09/28 11:48:50;;;;;;;1.55;0.63;;;14.10;99.90;;;;;;5063523;28;20013;-81
2022/09/28 11:51:31;;;;;;;2.67;0.40;;;14.10;99.90;;;;;;5066855;28;20035;-79
2022/09/28 11:54:27;;;;;;;0.30;0.30;;;14.10;99.90;;;;;;5063038;28;20048;-80
2022/09/28 11:56:57;;;;;;;1.20;0.50;;;14.10;99.90;;;;;;5074202;28;20036;-79
2022/09/28 11:59:55;;;;;;;1.42;0.45;;;14.20;99.90;;;;;;5066926;28;20071;-78
2022/09/28 12:02:35;;;;;;;0.35;0.30;;;14.20;99.90;;;;;;5062859;28;20044;-79
2022/09/28 12:05:06;;;;;;;0.73;0.40;;;14.10;99.90;;;;;;5061666;28;20028;-77
2022/09/28 12:08:09;;;;;;;2.55;0.60;;;14.20;99.90;;;;;;5065882;28;20052;-78
2022/09/28 12:10:57;;;;;;;0.55;0.30;;;14.20;99.90;;;;;;5010063;28;20037;-78
2022/09/28 12:13:33;;;;;;;0.28;0.20;;;14.10;99.90;;;;;;5064943;28;20100;-79
2022/09/28 12:16:09;;;;;;;0.43;0.28;;;14.10;99.90;;;;;;5070887;28;20394;-81
2022/09/28 12:18:50;;;;;;;0.32;0.30;;;14.10;99.90;;;;;;5066587;28;20046;-81
2022/09/28 12:21:40;;;;;;;0.90;0.40;;;14.10;99.90;;;;;;5061486;28;20025;-79
2022/09/28 12:24:17;;;;;;;0.90;0.40;;;14.10;99.90;;;;;;5054809;28;20067;-78
2022/09/28 12:27:13;;;;;;;0.43;0.40;;;14.10;99.90;;;;;;5059155;28;20476;-81
2022/09/28 12:29:42;;;;;;;0.30;0.22;;;14.10;99.90;;;;;;5059956;28;20055;-83
2022/09/28 12:32:17;;;;;;;0.55;0.38;;;14.10;99.90;;;;;;5027889;28;20037;-83
2022/09/28 12:34:45;;;;;;;0.20;0.20;;;14.10;99.90;;;;;;5029468;28;20377;-80
2022/09/28 12:37:18;;;;;;;0.28;0.20;;;14.10;99.90;;;;;;5024275;28;20123;-79
2022/09/28 12:39:58;;;;;;;0.50;0.30;;;14.10;99.90;;;;;;5020774;28;20037;-80
2022/09/28 12:42:41;;;;;;;0.40;0.20;;;14.00;99.90;;;;;;5011194;28;20619;-79
2022/09/28 12:45:23;;;;;;;1.15;0.63;;;14.10;99.90;;;;;;5018710;28;20120;-81
2022/09/28 12:48:34;;;;;;;0.20;0.20;;;14.00;99.90;;;;;;5018289;28;20381;-80
2022/09/28 12:51:12;;;;;;;2.22;0.30;;;14.00;99.90;;;;;;5013759;28;20131;-79
2022/09/28 12:53:46;;;;;;;0.77;0.30;;;14.00;99.90;;;;;;5014326;28;20109;-83
2022/09/28 12:56:20;;;;;;;0.77;0.28;;;14.00;99.90;;;;;;5014317;28;20022;-81
2022/09/28 12:59:09;;;;;;;0.65;0.50;;;14.00;99.90;;;;;;5016403;28;20125;-78
2022/09/28 13:02:06;;;;;;;0.20;0.20;;;14.00;99.90;;;;;;5019163;28;20033;-78
2022/09/28 13:05:07;;;;;;;0.50;0.28;;;13.90;99.90;;;;;;5013322;28;20097;-77
2022/09/28 13:08:03;;;;;;;0.65;0.30;;;13.90;99.90;;;;;;5011134;28;20079;-79
2022/09/28 13:10:39;;;;;;;0.10;0.10;;;13.90;99.90;;;;;;5017366;28;20071;-78
2022/09/28 13:13:44;;;;;;;0.20;0.20;;;13.90;99.90;;;;;;5021421;28;20120;-81
2022/09/28 13:16:16;;;;;;;0.82;0.30;;;13.90;99.90;;;;;;5015883;28;20385;-80
2022/09/28 13:18:48;;;;;;;0.40;0.20;;;13.90;99.90;;;;;;5015504;28;20136;-82
2022/09/28 13:21:41;;;;;;;0.63;0.30;;;13.90;99.90;;;;;;5015403;28;20030;-81
2022/09/28 13:24:13;;;;;;;0.30;0.28;;;13.90;99.90;;;;;;5020624;28;20049;-81
2022/09/28 13:26:45;;;;;;;0.10;0.10;;;13.90;99.90;;;;;;5018353;28;20108;-80
2022/09/28 13:29:16;;;;;;;1.55;0.95;;;13.90;99.90;;;;;;5022259;28;20029;-78
2022/09/28 13:31:56;;;;;;;0.30;0.30;;;13.90;99.90;;;;;;5015385;28;20036;-80
2022/09/28 13:34:35;;;;;;;0.50;0.30;;;13.90;99.90;;;;;;5057448;28;20414;-82
2022/09/28 13:37:20;;;;;;;0.70;0.30;;;13.90;99.90;;;;;;5060795;28;20024;-78
2022/09/28 13:39:50;;;;;;;0.20;0.20;;;13.90;99.90;;;;;;5067496;28;20036;-78